sensor_id;sensor_type;location;lat;lon;timestamp;temperature;humidity
19610;DHT22;9952;47.122;-1.638;2024-01-11T00:01:00;1.20;99.90
19610;DHT22;9952;47.122;-1.638;2024-01-11T00:05:41;1.20;99.90
19610;DHT22;9952;47.122;-1.638;2024-01-11T00:10:23;1.20;99.90
19610;DHT22;9952;47.122;-1.638;2024-01-11T00:15:03;1.20;99.90
19610;DHT22;9952;47.122;-1.638;2024-01-11T00:19:44;1.20;99.90
19610;DHT22;9952;47.122;-1.638;2024-01-11T00:24:25;1.10;99.90
19610;DHT22;9952;47.122;-1.638;2024-01-11T00:29:05;1.20;99.90
19610;DHT22;9952;47.122;-1.638;2024-01-11T00:33:47;1.10;99.90
19610;DHT22;9952;47.122;-1.638;2024-01-11T00:38:28;1.00;99.90
19610;DHT22;9952;47.122;-1.638;2024-01-11T00:43:08;1.10;99.90
19610;DHT22;9952;47.122;-1.638;2024-01-11T00:47:49;1.10;99.90
19610;DHT22;9952;47.122;-1.638;2024-01-11T00:52:29;1.10;99.90
19610;DHT22;9952;47.122;-1.638;2024-01-11T00:57:10;1.10;99.90
19610;DHT22;9952;47.122;-1.638;2024-01-11T01:01:51;1.00;99.90
19610;DHT22;9952;47.122;-1.638;2024-01-11T01:06:31;1.10;99.90
19610;DHT22;9952;47.122;-1.638;2024-01-11T01:11:12;1.20;99.90
19610;DHT22;9952;47.122;-1.638;2024-01-11T01:15:53;1.10;99.90
19610;DHT22;9952;47.122;-1.638;2024-01-11T01:20:33;1.20;99.90
19610;DHT22;9952;47.122;-1.638;2024-01-11T01:25:14;1.10;99.90
19610;DHT22;9952;47.122;-1.638;2024-01-11T01:29:55;1.10;99.90
19610;DHT22;9952;47.122;-1.638;2024-01-11T01:34:35;1.10;99.90
19610;DHT22;9952;47.122;-1.638;2024-01-11T01:39:16;1.20;99.90
19610;DHT22;9952;47.122;-1.638;2024-01-11T01:43:57;1.10;99.90
19610;DHT22;9952;47.122;-1.638;2024-01-11T01:48:37;1.10;99.90
19610;DHT22;9952;47.122;-1.638;2024-01-11T01:53:19;1.00;99.90
19610;DHT22;9952;47.122;-1.638;2024-01-11T01:58:03;1.00;99.90
19610;DHT22;9952;47.122;-1.638;2024-01-11T02:02:44;1.00;99.90
19610;DHT22;9952;47.122;-1.638;2024-01-11T02:07:26;0.90;99.90
19610;DHT22;9952;47.122;-1.638;2024-01-11T02:12:07;0.80;99.90
19610;DHT22;9952;47.122;-1.638;2024-01-11T02:16:51;0.80;99.90
19610;DHT22;9952;47.122;-1.638;2024-01-11T02:21:33;0.80;99.90
19610;DHT22;9952;47.122;-1.638;2024-01-11T02:26:14;0.70;99.90
19610;DHT22;9952;47.122;-1.638;2024-01-11T02:30:55;0.70;99.90
19610;DHT22;9952;47.122;-1.638;2024-01-11T02:35:36;0.60;99.90
19610;DHT22;9952;47.122;-1.638;2024-01-11T02:40:19;0.50;99.90
19610;DHT22;9952;47.122;-1.638;2024-01-11T02:45:02;0.50;99.90
19610;DHT22;9952;47.122;-1.638;2024-01-11T02:49:43;0.40;99.90
19610;DHT22;9952;47.122;-1.638;2024-01-11T02:54:24;0.40;99.90
19610;DHT22;9952;47.122;-1.638;2024-01-11T02:59:04;0.40;99.90
19610;DHT22;9952;47.122;-1.638;2024-01-11T03:03:45;0.40;99.90
19610;DHT22;9952;47.122;-1.638;2024-01-11T03:08:27;0.40;99.90
19610;DHT22;9952;47.122;-1.638;2024-01-11T03:13:08;0.50;99.90
19610;DHT22;9952;47.122;-1.638;2024-01-11T03:17:48;0.50;99.90
19610;DHT22;9952;47.122;-1.638;2024-01-11T03:22:29;0.60;99.90
19610;DHT22;9952;47.122;-1.638;2024-01-11T03:27:09;0.60;99.90
19610;DHT22;9952;47.122;-1.638;2024-01-11T03:31:50;0.60;99.90
19610;DHT22;9952;47.122;-1.638;2024-01-11T03:36:31;0.60;99.90
19610;DHT22;9952;47.122;-1.638;2024-01-11T03:41:11;0.40;99.90
19610;DHT22;9952;47.122;-1.638;2024-01-11T03:45:52;0.50;99.90
19610;DHT22;9952;47.122;-1.638;2024-01-11T03:50:33;0.50;99.90
19610;DHT22;9952;47.122;-1.638;2024-01-11T03:55:13;0.40;99.90
19610;DHT22;9952;47.122;-1.638;2024-01-11T03:59:54;0.40;99.90
19610;DHT22;9952;47.122;-1.638;2024-01-11T04:04:35;0.30;99.90
19610;DHT22;9952;47.122;-1.638;2024-01-11T04:09:15;0.30;99.90
19610;DHT22;9952;47.122;-1.638;2024-01-11T04:13:56;0.20;99.90
19610;DHT22;9952;47.122;-1.638;2024-01-11T04:18:37;0.20;99.90
19610;DHT22;9952;47.122;-1.638;2024-01-11T04:23:17;0.20;99.90
19610;DHT22;9952;47.122;-1.638;2024-01-11T04:27:58;0.30;99.90
19610;DHT22;9952;47.122;-1.638;2024-01-11T04:32:38;0.30;99.90
19610;DHT22;9952;47.122;-1.638;2024-01-11T04:37:19;0.30;99.90
19610;DHT22;9952;47.122;-1.638;2024-01-11T04:42:00;0.30;99.90
19610;DHT22;9952;47.122;-1.638;2024-01-11T04:46:43;0.40;99.90
19610;DHT22;9952;47.122;-1.638;2024-01-11T04:51:24;0.40;99.90
19610;DHT22;9952;47.122;-1.638;2024-01-11T04:56:07;0.50;99.90
19610;DHT22;9952;47.122;-1.638;2024-01-11T05:00:49;0.40;99.90
19610;DHT22;9952;47.122;-1.638;2024-01-11T05:05:29;0.50;99.90
19610;DHT22;9952;47.122;-1.638;2024-01-11T05:10:10;0.50;99.90
19610;DHT22;9952;47.122;-1.638;2024-01-11T05:14:51;0.50;99.90
19610;DHT22;9952;47.122;-1.638;2024-01-11T05:19:31;0.60;99.90
19610;DHT22;9952;47.122;-1.638;2024-01-11T05:24:12;0.60;99.90
19610;DHT22;9952;47.122;-1.638;2024-01-11T05:28:53;0.60;99.90
19610;DHT22;9952;47.122;-1.638;2024-01-11T05:33:33;0.50;99.90
19610;DHT22;9952;47.122;-1.638;2024-01-11T05:38:14;0.50;99.90
19610;DHT22;9952;47.122;-1.638;2024-01-11T05:42:55;0.60;99.90
19610;DHT22;9952;47.122;-1.638;2024-01-11T05:47:35;0.60;99.90
19610;DHT22;9952;47.122;-1.638;2024-01-11T05:52:16;0.60;99.90
19610;DHT22;9952;47.122;-1.638;2024-01-11T05:56:56;0.70;99.90
19610;DHT22;9952;47.122;-1.638;2024-01-11T06:01:42;0.60;99.90
19610;DHT22;9952;47.122;-1.638;2024-01-11T06:06:25;0.60;99.90
19610;DHT22;9952;47.122;-1.638;2024-01-11T06:11:06;0.70;99.90
19610;DHT22;9952;47.122;-1.638;2024-01-11T06:15:48;0.70;99.90
19610;DHT22;9952;47.122;-1.638;2024-01-11T06:20:28;0.70;99.90
19610;DHT22;9952;47.122;-1.638;2024-01-11T06:25:09;0.70;99.90
19610;DHT22;9952;47.122;-1.638;2024-01-11T06:29:49;0.80;99.90
19610;DHT22;9952;47.122;-1.638;2024-01-11T06:34:30;0.80;99.90
19610;DHT22;9952;47.122;-1.638;2024-01-11T06:39:11;0.80;99.90
19610;DHT22;9952;47.122;-1.638;2024-01-11T06:43:53;0.90;99.90
19610;DHT22;9952;47.122;-1.638;2024-01-11T06:48:33;0.80;99.90
19610;DHT22;9952;47.122;-1.638;2024-01-11T06:53:14;0.90;99.90
19610;DHT22;9952;47.122;-1.638;2024-01-11T06:57:55;0.90;99.90
19610;DHT22;9952;47.122;-1.638;2024-01-11T07:02:35;0.90;99.90
19610;DHT22;9952;47.122;-1.638;2024-01-11T07:07:16;0.90;99.90
19610;DHT22;9952;47.122;-1.638;2024-01-11T07:11:56;0.90;99.90
19610;DHT22;9952;47.122;-1.638;2024-01-11T07:16:37;1.00;99.90
19610;DHT22;9952;47.122;-1.638;2024-01-11T07:21:24;1.10;99.90
19610;DHT22;9952;47.122;-1.638;2024-01-11T07:26:11;1.10;99.90
19610;DHT22;9952;47.122;-1.638;2024-01-11T07:30:53;1.00;99.90
19610;DHT22;9952;47.122;-1.638;2024-01-11T07:35:33;1.00;99.90
19610;DHT22;9952;47.122;-1.638;2024-01-11T07:40:14;1.00;99.90
19610;DHT22;9952;47.122;-1.638;2024-01-11T07:44:55;1.00;99.90
19610;DHT22;9952;47.122;-1.638;2024-01-11T07:49:36;1.00;99.90
19610;DHT22;9952;47.122;-1.638;2024-01-11T07:54:16;1.10;99.90
19610;DHT22;9952;47.122;-1.638;2024-01-11T07:58:57;1.10;99.90
19610;DHT22;9952;47.122;-1.638;2024-01-11T08:03:38;1.00;99.90
19610;DHT22;9952;47.122;-1.638;2024-01-11T08:08:18;1.00;99.90
19610;DHT22;9952;47.122;-1.638;2024-01-11T08:13:00;1.00;99.90
19610;DHT22;9952;47.122;-1.638;2024-01-11T08:17:44;1.10;99.90
19610;DHT22;9952;47.122;-1.638;2024-01-11T08:22:25;1.10;99.90
19610;DHT22;9952;47.122;-1.638;2024-01-11T08:27:07;1.20;99.90
19610;DHT22;9952;47.122;-1.638;2024-01-11T08:31:48;1.20;99.90
19610;DHT22;9952;47.122;-1.638;2024-01-11T08:36:32;1.20;99.90
19610;DHT22;9952;47.122;-1.638;2024-01-11T08:41:14;1.20;99.90
19610;DHT22;9952;47.122;-1.638;2024-01-11T08:45:55;1.10;99.90
19610;DHT22;9952;47.122;-1.638;2024-01-11T08:50:36;1.20;99.90
19610;DHT22;9952;47.122;-1.638;2024-01-11T08:55:16;1.20;99.90
19610;DHT22;9952;47.122;-1.638;2024-01-11T08:59:57;1.20;99.90
19610;DHT22;9952;47.122;-1.638;2024-01-11T09:04:38;1.20;99.90
19610;DHT22;9952;47.122;-1.638;2024-01-11T09:09:18;1.40;99.90
19610;DHT22;9952;47.122;-1.638;2024-01-11T09:13:59;1.40;99.90
19610;DHT22;9952;47.122;-1.638;2024-01-11T09:18:39;1.40;99.90
19610;DHT22;9952;47.122;-1.638;2024-01-11T09:23:20;1.40;99.90
19610;DHT22;9952;47.122;-1.638;2024-01-11T09:28:01;1.50;99.90
19610;DHT22;9952;47.122;-1.638;2024-01-11T09:32:41;1.60;99.90
19610;DHT22;9952;47.122;-1.638;2024-01-11T09:37:22;1.70;99.90
19610;DHT22;9952;47.122;-1.638;2024-01-11T09:42:06;1.70;99.90
19610;DHT22;9952;47.122;-1.638;2024-01-11T09:46:47;1.80;99.90
19610;DHT22;9952;47.122;-1.638;2024-01-11T09:51:30;2.10;99.90
19610;DHT22;9952;47.122;-1.638;2024-01-11T09:56:13;2.40;99.90
19610;DHT22;9952;47.122;-1.638;2024-01-11T10:00:55;2.60;99.90
19610;DHT22;9952;47.122;-1.638;2024-01-11T10:05:36;2.50;99.90
19610;DHT22;9952;47.122;-1.638;2024-01-11T10:10:17;2.30;99.90
19610;DHT22;9952;47.122;-1.638;2024-01-11T10:15:05;2.30;99.90
19610;DHT22;9952;47.122;-1.638;2024-01-11T10:19:47;2.20;99.90
19610;DHT22;9952;47.122;-1.638;2024-01-11T10:24:28;2.40;99.90
19610;DHT22;9952;47.122;-1.638;2024-01-11T10:29:09;2.40;99.90
19610;DHT22;9952;47.122;-1.638;2024-01-11T10:33:51;2.50;99.90
19610;DHT22;9952;47.122;-1.638;2024-01-11T10:38:37;2.60;99.90
19610;DHT22;9952;47.122;-1.638;2024-01-11T10:43:21;2.80;99.90
19610;DHT22;9952;47.122;-1.638;2024-01-11T10:48:02;3.20;99.90
19610;DHT22;9952;47.122;-1.638;2024-01-11T10:52:56;3.30;99.90
19610;DHT22;9952;47.122;-1.638;2024-01-11T10:57:42;3.60;99.90
19610;DHT22;9952;47.122;-1.638;2024-01-11T11:02:23;3.80;99.90
19610;DHT22;9952;47.122;-1.638;2024-01-11T11:07:04;4.00;99.90
19610;DHT22;9952;47.122;-1.638;2024-01-11T11:11:48;4.20;99.90
19610;DHT22;9952;47.122;-1.638;2024-01-11T11:16:29;4.40;99.90
19610;DHT22;9952;47.122;-1.638;2024-01-11T11:21:10;4.60;99.90
19610;DHT22;9952;47.122;-1.638;2024-01-11T11:25:54;4.70;99.90
19610;DHT22;9952;47.122;-1.638;2024-01-11T11:30:40;4.70;99.90
19610;DHT22;9952;47.122;-1.638;2024-01-11T11:35:24;4.70;99.90
19610;DHT22;9952;47.122;-1.638;2024-01-11T11:40:06;4.80;99.90
19610;DHT22;9952;47.122;-1.638;2024-01-11T11:44:49;4.90;99.90
19610;DHT22;9952;47.122;-1.638;2024-01-11T11:54:42;5.20;99.90
19610;DHT22;9952;47.122;-1.638;2024-01-11T11:59:25;5.40;99.90
19610;DHT22;9952;47.122;-1.638;2024-01-11T12:04:08;5.50;99.90
19610;DHT22;9952;47.122;-1.638;2024-01-11T12:08:49;5.50;99.90
19610;DHT22;9952;47.122;-1.638;2024-01-11T12:13:29;5.70;99.90
19610;DHT22;9952;47.122;-1.638;2024-01-11T12:18:13;5.80;99.90
19610;DHT22;9952;47.122;-1.638;2024-01-11T12:22:54;6.00;99.90
19610;DHT22;9952;47.122;-1.638;2024-01-11T12:27:34;6.10;99.90
19610;DHT22;9952;47.122;-1.638;2024-01-11T12:32:15;6.20;99.90
19610;DHT22;9952;47.122;-1.638;2024-01-11T12:36:57;6.30;99.90
19610;DHT22;9952;47.122;-1.638;2024-01-11T12:41:41;6.30;99.90
19610;DHT22;9952;47.122;-1.638;2024-01-11T12:46:22;6.40;99.90
19610;DHT22;9952;47.122;-1.638;2024-01-11T12:51:04;6.50;99.90
19610;DHT22;9952;47.122;-1.638;2024-01-11T12:55:48;6.60;99.90
19610;DHT22;9952;47.122;-1.638;2024-01-11T13:00:29;6.60;99.90
19610;DHT22;9952;47.122;-1.638;2024-01-11T13:05:10;6.60;99.90
19610;DHT22;9952;47.122;-1.638;2024-01-11T13:09:51;6.80;99.90
19610;DHT22;9952;47.122;-1.638;2024-01-11T13:14:32;6.80;99.90
19610;DHT22;9952;47.122;-1.638;2024-01-11T13:19:13;6.90;99.90
19610;DHT22;9952;47.122;-1.638;2024-01-11T13:23:54;7.00;99.90
19610;DHT22;9952;47.122;-1.638;2024-01-11T13:28:35;7.10;99.90
19610;DHT22;9952;47.122;-1.638;2024-01-11T13:33:15;7.30;99.90
19610;DHT22;9952;47.122;-1.638;2024-01-11T13:37:57;7.30;99.90
19610;DHT22;9952;47.122;-1.638;2024-01-11T13:42:38;7.40;99.90
19610;DHT22;9952;47.122;-1.638;2024-01-11T13:47:19;7.50;99.90
19610;DHT22;9952;47.122;-1.638;2024-01-11T13:51:59;7.70;99.90
19610;DHT22;9952;47.122;-1.638;2024-01-11T13:56:40;7.70;99.90
19610;DHT22;9952;47.122;-1.638;2024-01-11T14:01:20;7.50;99.90
19610;DHT22;9952;47.122;-1.638;2024-01-11T14:06:02;7.70;99.90
19610;DHT22;9952;47.122;-1.638;2024-01-11T14:10:43;7.80;99.90
19610;DHT22;9952;47.122;-1.638;2024-01-11T14:15:24;7.80;99.90
19610;DHT22;9952;47.122;-1.638;2024-01-11T14:20:06;7.70;99.90
19610;DHT22;9952;47.122;-1.638;2024-01-11T14:24:53;7.80;99.90
19610;DHT22;9952;47.122;-1.638;2024-01-11T14:29:33;7.80;99.90
19610;DHT22;9952;47.122;-1.638;2024-01-11T14:34:14;7.90;99.90
19610;DHT22;9952;47.122;-1.638;2024-01-11T14:38:55;7.80;99.90
19610;DHT22;9952;47.122;-1.638;2024-01-11T14:43:35;7.80;99.90
19610;DHT22;9952;47.122;-1.638;2024-01-11T14:48:16;7.80;99.90
19610;DHT22;9952;47.122;-1.638;2024-01-11T14:52:58;7.70;99.90
19610;DHT22;9952;47.122;-1.638;2024-01-11T14:57:41;7.70;99.90
19610;DHT22;9952;47.122;-1.638;2024-01-11T15:02:22;7.50;99.90
19610;DHT22;9952;47.122;-1.638;2024-01-11T15:07:03;7.60;99.90
19610;DHT22;9952;47.122;-1.638;2024-01-11T15:11:44;7.60;99.90
19610;DHT22;9952;47.122;-1.638;2024-01-11T15:16:25;7.40;99.90
19610;DHT22;9952;47.122;-1.638;2024-01-11T15:21:06;7.30;99.90
19610;DHT22;9952;47.122;-1.638;2024-01-11T15:25:47;7.20;99.90
19610;DHT22;9952;47.122;-1.638;2024-01-11T15:30:27;7.10;99.90
19610;DHT22;9952;47.122;-1.638;2024-01-11T15:35:08;7.00;99.90
19610;DHT22;9952;47.122;-1.638;2024-01-11T15:39:49;6.70;99.90
19610;DHT22;9952;47.122;-1.638;2024-01-11T15:44:30;6.70;99.90
19610;DHT22;9952;47.122;-1.638;2024-01-11T15:49:12;6.70;99.90
19610;DHT22;9952;47.122;-1.638;2024-01-11T15:53:53;6.60;99.90
19610;DHT22;9952;47.122;-1.638;2024-01-11T15:58:33;6.50;99.90
19610;DHT22;9952;47.122;-1.638;2024-01-11T16:03:14;6.40;99.90
19610;DHT22;9952;47.122;-1.638;2024-01-11T16:07:54;6.30;99.90
19610;DHT22;9952;47.122;-1.638;2024-01-11T16:12:35;6.10;99.90
19610;DHT22;9952;47.122;-1.638;2024-01-11T16:17:16;5.90;99.90
19610;DHT22;9952;47.122;-1.638;2024-01-11T16:21:56;5.80;99.90
19610;DHT22;9952;47.122;-1.638;2024-01-11T16:26:37;5.80;99.90
19610;DHT22;9952;47.122;-1.638;2024-01-11T16:31:18;5.70;99.90
19610;DHT22;9952;47.122;-1.638;2024-01-11T16:35:59;5.60;99.90
19610;DHT22;9952;47.122;-1.638;2024-01-11T16:40:40;5.60;99.90
19610;DHT22;9952;47.122;-1.638;2024-01-11T16:45:21;5.60;99.90
19610;DHT22;9952;47.122;-1.638;2024-01-11T16:50:03;5.60;99.90
19610;DHT22;9952;47.122;-1.638;2024-01-11T16:54:47;5.70;99.90
19610;DHT22;9952;47.122;-1.638;2024-01-11T16:59:27;5.50;99.90
19610;DHT22;9952;47.122;-1.638;2024-01-11T17:04:08;5.50;99.90
19610;DHT22;9952;47.122;-1.638;2024-01-11T17:08:49;5.40;99.90
19610;DHT22;9952;47.122;-1.638;2024-01-11T17:13:30;5.50;99.90
19610;DHT22;9952;47.122;-1.638;2024-01-11T17:18:10;5.50;99.90
19610;DHT22;9952;47.122;-1.638;2024-01-11T17:22:52;5.30;99.90
19610;DHT22;9952;47.122;-1.638;2024-01-11T17:27:32;5.40;99.90
19610;DHT22;9952;47.122;-1.638;2024-01-11T17:32:13;5.20;99.90
19610;DHT22;9952;47.122;-1.638;2024-01-11T17:36:54;5.20;99.90
19610;DHT22;9952;47.122;-1.638;2024-01-11T17:41:38;5.10;99.90
19610;DHT22;9952;47.122;-1.638;2024-01-11T17:46:24;5.20;99.90
19610;DHT22;9952;47.122;-1.638;2024-01-11T17:51:10;5.10;99.90
19610;DHT22;9952;47.122;-1.638;2024-01-11T17:55:51;5.00;99.90
19610;DHT22;9952;47.122;-1.638;2024-01-11T18:00:32;5.00;99.90
19610;DHT22;9952;47.122;-1.638;2024-01-11T18:05:14;4.90;99.90
19610;DHT22;9952;47.122;-1.638;2024-01-11T18:09:55;4.90;99.90
19610;DHT22;9952;47.122;-1.638;2024-01-11T18:14:35;4.70;99.90
19610;DHT22;9952;47.122;-1.638;2024-01-11T18:19:16;4.70;99.90
19610;DHT22;9952;47.122;-1.638;2024-01-11T18:23:56;4.70;99.90
19610;DHT22;9952;47.122;-1.638;2024-01-11T18:28:37;4.70;99.90
19610;DHT22;9952;47.122;-1.638;2024-01-11T18:33:18;4.60;99.90
19610;DHT22;9952;47.122;-1.638;2024-01-11T18:37:59;4.60;99.90
19610;DHT22;9952;47.122;-1.638;2024-01-11T18:42:40;4.60;99.90
19610;DHT22;9952;47.122;-1.638;2024-01-11T18:47:20;4.50;99.90
19610;DHT22;9952;47.122;-1.638;2024-01-11T18:52:01;4.30;99.90
19610;DHT22;9952;47.122;-1.638;2024-01-11T18:56:41;4.30;99.90
19610;DHT22;9952;47.122;-1.638;2024-01-11T19:01:23;4.20;99.90
19610;DHT22;9952;47.122;-1.638;2024-01-11T19:06:06;4.20;99.90
19610;DHT22;9952;47.122;-1.638;2024-01-11T19:10:47;4.10;99.90
19610;DHT22;9952;47.122;-1.638;2024-01-11T19:15:28;4.10;99.90
19610;DHT22;9952;47.122;-1.638;2024-01-11T19:20:09;4.00;99.90
19610;DHT22;9952;47.122;-1.638;2024-01-11T19:24:50;4.00;99.90
19610;DHT22;9952;47.122;-1.638;2024-01-11T19:29:32;3.90;99.90
19610;DHT22;9952;47.122;-1.638;2024-01-11T19:34:13;3.80;99.90
19610;DHT22;9952;47.122;-1.638;2024-01-11T19:38:53;3.80;99.90
19610;DHT22;9952;47.122;-1.638;2024-01-11T19:43:37;3.80;99.90
19610;DHT22;9952;47.122;-1.638;2024-01-11T19:48:25;3.70;99.90
19610;DHT22;9952;47.122;-1.638;2024-01-11T19:53:08;3.60;99.90
19610;DHT22;9952;47.122;-1.638;2024-01-11T19:57:49;3.50;99.90
19610;DHT22;9952;47.122;-1.638;2024-01-11T20:02:29;3.60;99.90
19610;DHT22;9952;47.122;-1.638;2024-01-11T20:07:10;3.50;99.90
19610;DHT22;9952;47.122;-1.638;2024-01-11T20:11:50;3.40;99.90
19610;DHT22;9952;47.122;-1.638;2024-01-11T20:16:31;3.40;99.90
19610;DHT22;9952;47.122;-1.638;2024-01-11T20:21:12;3.30;99.90
19610;DHT22;9952;47.122;-1.638;2024-01-11T20:25:53;3.30;99.90
19610;DHT22;9952;47.122;-1.638;2024-01-11T20:30:35;3.20;99.90
19610;DHT22;9952;47.122;-1.638;2024-01-11T20:35:15;3.20;99.90
19610;DHT22;9952;47.122;-1.638;2024-01-11T20:39:56;3.20;99.90
19610;DHT22;9952;47.122;-1.638;2024-01-11T20:44:37;3.10;99.90
19610;DHT22;9952;47.122;-1.638;2024-01-11T20:49:18;3.10;99.90
19610;DHT22;9952;47.122;-1.638;2024-01-11T20:53:58;3.00;99.90
19610;DHT22;9952;47.122;-1.638;2024-01-11T20:58:44;3.00;99.90
19610;DHT22;9952;47.122;-1.638;2024-01-11T21:03:24;3.00;99.90
19610;DHT22;9952;47.122;-1.638;2024-01-11T21:08:05;2.90;99.90
19610;DHT22;9952;47.122;-1.638;2024-01-11T21:12:46;2.80;99.90
19610;DHT22;9952;47.122;-1.638;2024-01-11T21:17:28;2.80;99.90
19610;DHT22;9952;47.122;-1.638;2024-01-11T21:22:09;2.80;99.90
19610;DHT22;9952;47.122;-1.638;2024-01-11T21:26:50;2.80;99.90
19610;DHT22;9952;47.122;-1.638;2024-01-11T21:31:30;2.70;99.90
19610;DHT22;9952;47.122;-1.638;2024-01-11T21:36:19;2.70;99.90
19610;DHT22;9952;47.122;-1.638;2024-01-11T21:41:04;2.60;99.90
19610;DHT22;9952;47.122;-1.638;2024-01-11T21:45:45;2.60;99.90
19610;DHT22;9952;47.122;-1.638;2024-01-11T21:50:25;2.50;99.90
19610;DHT22;9952;47.122;-1.638;2024-01-11T21:55:07;2.60;99.90
19610;DHT22;9952;47.122;-1.638;2024-01-11T21:59:47;2.50;99.90
19610;DHT22;9952;47.122;-1.638;2024-01-11T22:04:28;2.50;99.90
19610;DHT22;9952;47.122;-1.638;2024-01-11T22:09:09;2.40;99.90
19610;DHT22;9952;47.122;-1.638;2024-01-11T22:13:49;2.30;99.90
19610;DHT22;9952;47.122;-1.638;2024-01-11T22:18:30;2.30;99.90
19610;DHT22;9952;47.122;-1.638;2024-01-11T22:23:10;2.30;99.90
19610;DHT22;9952;47.122;-1.638;2024-01-11T22:27:52;2.30;99.90
19610;DHT22;9952;47.122;-1.638;2024-01-11T22:32:33;2.20;99.90
19610;DHT22;9952;47.122;-1.638;2024-01-11T22:37:15;2.20;99.90
19610;DHT22;9952;47.122;-1.638;2024-01-11T22:41:56;2.20;99.90
19610;DHT22;9952;47.122;-1.638;2024-01-11T22:46:37;2.10;99.90
19610;DHT22;9952;47.122;-1.638;2024-01-11T22:51:17;2.10;99.90
19610;DHT22;9952;47.122;-1.638;2024-01-11T22:55:58;2.00;99.90
19610;DHT22;9952;47.122;-1.638;2024-01-11T23:00:39;2.10;99.90
19610;DHT22;9952;47.122;-1.638;2024-01-11T23:05:19;2.10;99.90
19610;DHT22;9952;47.122;-1.638;2024-01-11T23:10:00;2.00;99.90
19610;DHT22;9952;47.122;-1.638;2024-01-11T23:14:41;2.00;99.90
19610;DHT22;9952;47.122;-1.638;2024-01-11T23:19:22;2.00;99.90
19610;DHT22;9952;47.122;-1.638;2024-01-11T23:24:02;1.90;99.90
19610;DHT22;9952;47.122;-1.638;2024-01-11T23:28:43;1.90;99.90
19610;DHT22;9952;47.122;-1.638;2024-01-11T23:33:24;1.90;99.90
19610;DHT22;9952;47.122;-1.638;2024-01-11T23:38:04;1.80;99.90
19610;DHT22;9952;47.122;-1.638;2024-01-11T23:42:45;1.90;99.90
19610;DHT22;9952;47.122;-1.638;2024-01-11T23:47:25;1.80;99.90
19610;DHT22;9952;47.122;-1.638;2024-01-11T23:52:06;1.80;99.90
19610;DHT22;9952;47.122;-1.638;2024-01-11T23:56:47;1.80;99.90
